Time;durP1;ratioP1;P1;durP2;ratioP2;P2;SDS_P1;SDS_P2;PMS_P1;PMS_P2;Temp;Humidity;BMP_temperature;BMP_pressure;BME280_temperature;BME280_humidity;BME280_pressure;Samples;Min_cycle;Max_cycle;Signal;HPM_P1;HPM_P2
2023/02/22 00:00:46;;;;;;;17.38;7.38;;;;;;;;;;5031095;28;20096;-77
2023/02/22 00:03:15;;;;;;;14.13;7.47;;;;;;;;;;5030058;28;20465;-77
2023/02/22 00:05:45;;;;;;;18.08;8.27;;;;;;;;;;5013766;28;20052;-77
2023/02/22 00:08:13;;;;;;;19.42;8.45;;;;;;;;;;5029775;28;20490;-77
2023/02/22 00:10:40;;;;;;;14.27;8.27;;;;;;;;;;4997800;28;20061;-77
2023/02/22 00:13:10;;;;;;;12.65;6.88;;;;;;;;;;5030849;28;20108;-77
2023/02/22 00:15:40;;;;;;;13.43;7.32;;;;;;;;;;5012886;28;20211;-78
2023/02/22 00:18:09;;;;;;;21.52;9.48;;;;;;;;;;5029403;28;20053;-77
2023/02/22 00:20:37;;;;;;;13.85;7.47;;;;;;;;;;5029135;28;20053;-78
2023/02/22 00:23:11;;;;;;;11.77;7.13;;;;;;;;;;5013385;28;20456;-77
2023/02/22 00:25:38;;;;;;;11.50;6.57;;;;;;;;;;5029112;28;20136;-77
2023/02/22 00:28:05;;;;;;;10.52;6.40;;;;;;;;;;5030246;28;20081;-77
2023/02/22 00:30:33;;;;;;;11.00;6.50;;;;;;;;;;5012568;28;20081;-77
2023/02/22 00:32:59;;;;;;;11.00;6.10;;;;;;;;;;4996962;28;20053;-78
2023/02/22 00:35:28;;;;;;;12.32;7.05;;;;;;;;;;5012864;28;20100;-76
2023/02/22 00:37:57;;;;;;;9.18;6.47;;;;;;;;;;5030687;28;20049;-76
2023/02/22 00:40:25;;;;;;;14.65;7.10;;;;;;;;;;5028568;28;20321;-76
2023/02/22 00:42:53;;;;;;;13.10;6.97;;;;;;;;;;5030340;28;20140;-77
2023/02/22 00:45:22;;;;;;;9.18;7.22;;;;;;;;;;5029157;28;20418;-76
2023/02/22 00:47:49;;;;;;;9.15;6.63;;;;;;;;;;5028812;28;20379;-76
2023/02/22 00:50:16;;;;;;;13.73;7.65;;;;;;;;;;5012538;28;20132;-76
2023/02/22 00:52:44;;;;;;;8.82;6.07;;;;;;;;;;5012719;28;20583;-76
2023/02/22 00:55:25;;;;;;;10.98;6.70;;;;;;;;;;5028633;28;20093;-76
2023/02/22 00:57:54;;;;;;;9.05;6.30;;;;;;;;;;5012549;28;20489;-76
2023/02/22 01:00:41;;;;;;;12.82;6.72;;;;;;;;;;5012392;28;20114;-76
2023/02/22 01:03:10;;;;;;;13.05;7.32;;;;;;;;;;5029849;28;20141;-77
2023/02/22 01:05:37;;;;;;;13.25;7.03;;;;;;;;;;4996791;28;20081;-75
2023/02/22 01:08:05;;;;;;;8.60;6.13;;;;;;;;;;5028549;28;20091;-76
2023/02/22 01:10:32;;;;;;;8.88;6.07;;;;;;;;;;5028316;28;20132;-76
2023/02/22 01:13:00;;;;;;;11.40;7.47;;;;;;;;;;5029784;28;20147;-76
2023/02/22 01:15:29;;;;;;;12.73;6.60;;;;;;;;;;5029616;28;20088;-76
2023/02/22 01:17:57;;;;;;;9.73;6.82;;;;;;;;;;5011973;28;20045;-76
2023/02/22 01:20:25;;;;;;;11.85;7.30;;;;;;;;;;5028441;28;20513;-77
2023/02/22 01:22:53;;;;;;;8.65;6.10;;;;;;;;;;5028668;28;20141;-76
2023/02/22 01:25:25;;;;;;;10.30;6.80;;;;;;;;;;4996294;28;20464;-74
2023/02/22 01:27:52;;;;;;;11.23;7.75;;;;;;;;;;5029702;28;20468;-76
2023/02/22 01:30:21;;;;;;;12.68;8.00;;;;;;;;;;5028067;28;20072;-76
2023/02/22 01:32:49;;;;;;;13.90;6.93;;;;;;;;;;5028355;28;20058;-76
2023/02/22 01:35:18;;;;;;;13.13;7.63;;;;;;;;;;5014894;28;20053;-76
2023/02/22 01:37:45;;;;;;;10.15;6.00;;;;;;;;;;5031419;28;20058;-78
2023/02/22 01:40:22;;;;;;;9.45;6.15;;;;;;;;;;5028686;28;20492;-76
2023/02/22 01:42:53;;;;;;;14.07;7.05;;;;;;;;;;5012363;28;20049;-77
2023/02/22 01:45:29;;;;;;;10.50;6.53;;;;;;;;;;5028286;28;20087;-77
2023/02/22 01:48:23;;;;;;;9.43;6.45;;;;;;;;;;5028057;28;20140;-77
2023/02/22 01:51:00;;;;;;;9.88;6.57;;;;;;;;;;5028076;28;20096;-77
2023/02/22 01:53:33;;;;;;;10.65;6.75;;;;;;;;;;5016028;28;20057;-76
2023/02/22 01:56:00;;;;;;;12.18;6.22;;;;;;;;;;5032121;28;20080;-76
2023/02/22 01:58:27;;;;;;;9.68;6.78;;;;;;;;;;5031216;28;20122;-77
2023/02/22 02:00:54;;;;;;;9.35;6.90;;;;;;;;;;5031742;28;20088;-76
2023/02/22 02:03:26;;;;;;;11.48;6.80;;;;;;;;;;5032363;28;20049;-77
2023/02/22 02:05:54;;;;;;;9.27;6.45;;;;;;;;;;5000610;28;20054;-76
2023/02/22 02:08:41;;;;;;;10.20;6.70;;;;;;;;;;5032314;28;20080;-76
2023/02/22 02:11:08;;;;;;;13.70;6.60;;;;;;;;;;5016492;28;20049;-75
2023/02/22 02:13:35;;;;;;;10.90;6.75;;;;;;;;;;5031881;28;20054;-76
2023/02/22 02:16:02;;;;;;;11.82;6.68;;;;;;;;;;5031845;28;20046;-76
2023/02/22 02:18:29;;;;;;;9.40;6.75;;;;;;;;;;4999949;28;20414;-77
2023/02/22 02:21:10;;;;;;;13.05;6.68;;;;;;;;;;5016207;28;20136;-77
2023/02/22 02:23:39;;;;;;;11.32;7.70;;;;;;;;;;5033252;28;20096;-77
2023/02/22 02:26:24;;;;;;;13.13;6.97;;;;;;;;;;5032838;28;20059;-77
2023/02/22 02:29:33;;;;;;;13.23;7.30;;;;;;;;;;5032625;28;20096;-77
2023/02/22 02:32:19;;;;;;;14.05;8.38;;;;;;;;;;5019704;28;20141;-77
2023/02/22 02:34:56;;;;;;;13.82;7.93;;;;;;;;;;5016177;28;20053;-77
2023/02/22 02:37:26;;;;;;;15.63;7.88;;;;;;;;;;5032813;28;20097;-77
2023/02/22 02:39:57;;;;;;;11.55;6.95;;;;;;;;;;5032722;28;20076;-77
2023/02/22 02:42:27;;;;;;;11.93;7.72;;;;;;;;;;5032897;28;20057;-77
2023/02/22 02:45:02;;;;;;;12.07;7.75;;;;;;;;;;5016404;28;20400;-77
2023/02/22 02:47:31;;;;;;;14.43;7.57;;;;;;;;;;5032541;28;20088;-76
2023/02/22 02:50:17;;;;;;;11.85;7.43;;;;;;;;;;5015834;28;20049;-77
2023/02/22 02:52:44;;;;;;;10.57;7.55;;;;;;;;;;5016772;28;20049;-76
2023/02/22 02:55:11;;;;;;;11.27;7.82;;;;;;;;;;5015291;28;20050;-76
2023/02/22 02:57:38;;;;;;;13.68;7.82;;;;;;;;;;5031072;28;20115;-76
2023/02/22 03:00:21;;;;;;;10.88;7.40;;;;;;;;;;5014544;28;20119;-76
2023/02/22 03:03:06;;;;;;;12.73;8.45;;;;;;;;;;5011163;28;20141;-77
2023/02/22 03:06:00;;;;;;;11.88;7.30;;;;;;;;;;4980595;28;20140;-76
2023/02/22 03:08:36;;;;;;;11.25;7.22;;;;;;;;;;4997237;28;20478;-75
2023/02/22 03:11:13;;;;;;;10.13;6.78;;;;;;;;;;5027086;28;20057;-76
2023/02/22 03:13:54;;;;;;;10.18;7.00;;;;;;;;;;5030669;28;20053;-75
2023/02/22 03:16:31;;;;;;;10.40;6.47;;;;;;;;;;5030668;28;20463;-77
2023/02/22 03:19:20;;;;;;;8.90;6.72;;;;;;;;;;5031661;28;20055;-79
2023/02/22 03:21:55;;;;;;;9.00;6.22;;;;;;;;;;5030632;28;20497;-79
2023/02/22 03:25:07;;;;;;;10.70;6.45;;;;;;;;;;5031750;28;20058;-78
2023/02/22 03:27:42;;;;;;;10.48;7.28;;;;;;;;;;5017536;28;20107;-79
2023/02/22 03:30:15;;;;;;;11.68;7.80;;;;;;;;;;5014740;28;20081;-79
2023/02/22 03:32:43;;;;;;;;;;;;;;;;;;5030688;28;20119;-80
2023/02/22 03:35:20;;;;;;;13.75;7.43;;;;;;;;;;5030480;28;19983;-80
2023/02/22 03:37:48;;;;;;;11.70;6.95;;;;;;;;;;5014480;28;20081;-79
2023/02/22 03:40:24;;;;;;;10.70;7.13;;;;;;;;;;5030493;28;20089;-80
2023/02/22 03:42:55;;;;;;;11.05;6.85;;;;;;;;;;5029835;28;20107;-79
2023/02/22 03:45:22;;;;;;;11.93;7.47;;;;;;;;;;5014125;28;20237;-79
2023/02/22 03:47:51;;;;;;;9.48;6.68;;;;;;;;;;5030041;28;20449;-80
2023/02/22 03:50:34;;;;;;;11.23;7.07;;;;;;;;;;4997871;28;20053;-79
2023/02/22 03:53:01;;;;;;;10.40;7.75;;;;;;;;;;5014160;28;20428;-79
2023/02/22 03:55:28;;;;;;;9.82;6.88;;;;;;;;;;5014038;28;20053;-79
2023/02/22 03:57:59;;;;;;;12.07;6.70;;;;;;;;;;5029621;28;20061;-78
2023/02/22 04:00:28;;;;;;;11.60;6.78;;;;;;;;;;5029937;28;20085;-78
2023/02/22 04:02:55;;;;;;;12.73;7.35;;;;;;;;;;4998015;28;20127;-78
2023/02/22 04:05:23;;;;;;;10.02;7.05;;;;;;;;;;5029006;28;20053;-77
2023/02/22 04:07:55;;;;;;;10.20;7.07;;;;;;;;;;5013093;28;20611;-77
2023/02/22 04:10:23;;;;;;;14.70;7.07;;;;;;;;;;5029430;28;20132;-77
2023/02/22 04:12:50;;;;;;;9.70;7.38;;;;;;;;;;5029362;28;20525;-77
2023/02/22 04:15:22;;;;;;;10.07;7.32;;;;;;;;;;4996304;28;20077;-77
2023/02/22 04:17:51;;;;;;;12.35;7.50;;;;;;;;;;5013307;28;20053;-77
2023/02/22 04:20:18;;;;;;;11.38;6.97;;;;;;;;;;5013602;28;20045;-76
2023/02/22 04:22:46;;;;;;;10.73;7.32;;;;;;;;;;5029680;28;20045;-76
2023/02/22 04:25:13;;;;;;;11.05;7.43;;;;;;;;;;5029405;28;20056;-75
2023/02/22 04:27:40;;;;;;;11.30;7.57;;;;;;;;;;5029047;28;20057;-75
2023/02/22 04:30:08;;;;;;;13.75;7.72;;;;;;;;;;5030912;28;20461;-76
2023/02/22 04:32:35;;;;;;;12.55;8.88;;;;;;;;;;5029962;28;20441;-76
2023/02/22 04:35:03;;;;;;;12.70;7.63;;;;;;;;;;5029217;28;20053;-75
2023/02/22 04:37:33;;;;;;;11.75;7.57;;;;;;;;;;5012857;28;20053;-76
2023/02/22 04:40:00;;;;;;;11.80;7.63;;;;;;;;;;5013088;28;20099;-76
2023/02/22 04:42:27;;;;;;;12.23;7.68;;;;;;;;;;5030374;28;20084;-76
2023/02/22 04:44:54;;;;;;;12.50;8.07;;;;;;;;;;5012560;28;20057;-76
2023/02/22 04:47:21;;;;;;;13.10;7.85;;;;;;;;;;5029243;28;20466;-75
2023/02/22 04:49:48;;;;;;;11.43;6.75;;;;;;;;;;5012613;28;20096;-75
2023/02/22 04:52:15;;;;;;;10.88;7.50;;;;;;;;;;5029876;28;20055;-75
2023/02/22 04:54:41;;;;;;;13.52;7.28;;;;;;;;;;5031985;28;20115;-75
2023/02/22 04:57:11;;;;;;;10.40;7.03;;;;;;;;;;5029855;28;20053;-76
2023/02/22 04:59:37;;;;;;;10.15;7.63;;;;;;;;;;5029275;28;20046;-75
2023/02/22 05:02:04;;;;;;;10.25;7.53;;;;;;;;;;5029406;28;20474;-76
2023/02/22 05:04:31;;;;;;;12.35;8.00;;;;;;;;;;4996604;28;20521;-75
2023/02/22 05:06:58;;;;;;;11.23;7.32;;;;;;;;;;5029581;28;20425;-76
2023/02/22 05:09:25;;;;;;;11.68;7.60;;;;;;;;;;5028684;28;20101;-76
2023/02/22 05:11:52;;;;;;;11.82;7.60;;;;;;;;;;5030384;28;20417;-76
2023/02/22 05:14:18;;;;;;;10.57;7.95;;;;;;;;;;5028909;28;20596;-77
2023/02/22 05:16:48;;;;;;;12.63;8.00;;;;;;;;;;5012244;28;20045;-78
2023/02/22 05:19:15;;;;;;;11.82;7.80;;;;;;;;;;5028054;28;20049;-78
2023/02/22 05:21:42;;;;;;;12.20;7.38;;;;;;;;;;5028830;28;20652;-77
2023/02/22 05:24:09;;;;;;;10.30;7.40;;;;;;;;;;5029373;28;20057;-77
2023/02/22 05:26:36;;;;;;;12.23;7.50;;;;;;;;;;5032492;28;20050;-76
2023/02/22 05:29:04;;;;;;;12.65;7.80;;;;;;;;;;5013389;28;20500;-76
2023/02/22 05:31:32;;;;;;;16.25;8.50;;;;;;;;;;5013350;28;20049;-76
2023/02/22 05:33:59;;;;;;;13.20;8.50;;;;;;;;;;5012336;28;20138;-76
2023/02/22 05:36:26;;;;;;;12.02;7.95;;;;;;;;;;5018332;28;20046;-74
2023/02/22 05:38:54;;;;;;;11.15;7.50;;;;;;;;;;5004641;28;20131;-74
2023/02/22 05:41:21;;;;;;;11.45;7.93;;;;;;;;;;5009009;28;20092;-74
2023/02/22 05:43:48;;;;;;;11.50;7.75;;;;;;;;;;5023436;28;20049;-74
2023/02/22 05:46:15;;;;;;;10.73;8.32;;;;;;;;;;5030283;28;20089;-76
2023/02/22 05:48:42;;;;;;;20.10;10.60;;;;;;;;;;5029990;28;20053;-74
2023/02/22 05:51:09;;;;;;;17.60;11.48;;;;;;;;;;5029238;28;20049;-74
2023/02/22 05:53:36;;;;;;;13.90;10.55;;;;;;;;;;5012897;28;20558;-73
2023/02/22 05:56:03;;;;;;;14.55;8.75;;;;;;;;;;5028557;28;20093;-75
2023/02/22 05:58:30;;;;;;;11.93;7.45;;;;;;;;;;5028543;28;20508;-76
2023/02/22 06:00:57;;;;;;;9.75;6.95;;;;;;;;;;4997502;28;20132;-77
2023/02/22 06:03:24;;;;;;;11.35;7.22;;;;;;;;;;5028981;28;20144;-75
2023/02/22 06:05:51;;;;;;;12.00;7.70;;;;;;;;;;5028515;28;20042;-74
2023/02/22 06:08:18;;;;;;;8.45;7.07;;;;;;;;;;5011876;28;20053;-75
2023/02/22 06:10:46;;;;;;;12.25;7.15;;;;;;;;;;5028542;28;20053;-75
2023/02/22 06:13:13;;;;;;;13.18;8.10;;;;;;;;;;5028327;28;20088;-74
2023/02/22 06:15:40;;;;;;;12.90;7.80;;;;;;;;;;5027526;28;20168;-73
2023/02/22 06:18:06;;;;;;;11.80;7.25;;;;;;;;;;5011239;28;20203;-74
2023/02/22 06:20:34;;;;;;;12.45;8.05;;;;;;;;;;5028040;28;20053;-73
2023/02/22 06:23:01;;;;;;;13.85;7.57;;;;;;;;;;5011786;28;20057;-74
2023/02/22 06:25:30;;;;;;;12.13;7.90;;;;;;;;;;5028066;28;20093;-74
2023/02/22 06:27:58;;;;;;;11.93;7.75;;;;;;;;;;5011747;28;20460;-75
2023/02/22 06:30:25;;;;;;;12.18;7.72;;;;;;;;;;5012204;28;20143;-76
2023/02/22 06:32:52;;;;;;;13.23;7.18;;;;;;;;;;4995773;28;20053;-77
2023/02/22 06:35:20;;;;;;;10.35;7.15;;;;;;;;;;5013006;28;20111;-76
2023/02/22 06:37:47;;;;;;;13.50;8.02;;;;;;;;;;5014513;28;20531;-73
2023/02/22 06:40:14;;;;;;;11.93;8.38;;;;;;;;;;5031735;28;20145;-74
2023/02/22 06:42:41;;;;;;;11.10;8.07;;;;;;;;;;5015878;28;20089;-78
2023/02/22 06:45:09;;;;;;;12.73;7.55;;;;;;;;;;5031491;28;20508;-73
2023/02/22 06:47:40;;;;;;;12.60;7.47;;;;;;;;;;5013563;28;20567;-74
2023/02/22 06:50:21;;;;;;;11.98;8.00;;;;;;;;;;5014408;28;20058;-73
2023/02/22 06:52:48;;;;;;;14.77;7.57;;;;;;;;;;4999914;28;20100;-72
2023/02/22 06:55:17;;;;;;;12.02;7.50;;;;;;;;;;5029716;28;20084;-72
2023/02/22 06:57:44;;;;;;;12.73;7.75;;;;;;;;;;5012815;28;20139;-72
2023/02/22 07:00:11;;;;;;;11.18;7.60;;;;;;;;;;5030883;28;20128;-72
2023/02/22 07:02:38;;;;;;;10.98;7.70;;;;;;;;;;5029693;28;20135;-72
2023/02/22 07:05:05;;;;;;;11.93;7.53;;;;;;;;;;5029291;28;20050;-71
2023/02/22 07:07:32;;;;;;;13.32;7.80;;;;;;;;;;5028938;28;20489;-73
2023/02/22 07:09:59;;;;;;;12.82;7.70;;;;;;;;;;5028996;28;20142;-71
2023/02/22 07:12:26;;;;;;;14.75;7.70;;;;;;;;;;5029538;28;20050;-72
2023/02/22 07:14:55;;;;;;;9.82;6.93;;;;;;;;;;5030645;28;20495;-72
2023/02/22 07:17:22;;;;;;;13.60;7.88;;;;;;;;;;5013460;28;20107;-72
2023/02/22 07:19:48;;;;;;;17.98;7.68;;;;;;;;;;5029481;28;20085;-72
2023/02/22 07:22:16;;;;;;;9.25;6.80;;;;;;;;;;5029160;28;20103;-72
2023/02/22 07:24:43;;;;;;;14.88;8.48;;;;;;;;;;4996494;28;20075;-73
2023/02/22 07:27:10;;;;;;;9.60;7.03;;;;;;;;;;5028927;28;20505;-74
2023/02/22 07:29:36;;;;;;;10.02;7.20;;;;;;;;;;5013790;28;20092;-72
2023/02/22 07:32:03;;;;;;;10.52;6.90;;;;;;;;;;5031459;28;20140;-78
2023/02/22 07:34:30;;;;;;;14.63;7.93;;;;;;;;;;5013370;28;20045;-76
2023/02/22 07:36:57;;;;;;;14.52;7.60;;;;;;;;;;5028922;28;20081;-73
2023/02/22 07:39:24;;;;;;;12.85;7.70;;;;;;;;;;5028961;28;20172;-73
2023/02/22 07:41:50;;;;;;;10.68;8.05;;;;;;;;;;5030187;28;20092;-73
2023/02/22 07:44:17;;;;;;;10.52;7.15;;;;;;;;;;5030188;28;20450;-70
2023/02/22 07:46:47;;;;;;;14.05;8.20;;;;;;;;;;5029982;28;20058;-70
2023/02/22 07:49:15;;;;;;;12.93;7.75;;;;;;;;;;5010816;28;20131;-71
2023/02/22 07:51:41;;;;;;;9.80;6.80;;;;;;;;;;5028563;28;20053;-72
2023/02/22 07:54:08;;;;;;;8.70;7.07;;;;;;;;;;5029886;28;20064;-72
2023/02/22 07:56:35;;;;;;;9.30;6.85;;;;;;;;;;5012321;28;20053;-74
2023/02/22 07:59:02;;;;;;;9.07;6.80;;;;;;;;;;5012801;28;20053;-75
2023/02/22 08:01:30;;;;;;;13.63;7.60;;;;;;;;;;4997415;28;20164;-74
2023/02/22 08:03:57;;;;;;;11.65;7.13;;;;;;;;;;5030183;28;20045;-76
2023/02/22 08:06:24;;;;;;;12.40;7.38;;;;;;;;;;5030093;28;20057;-74
2023/02/22 08:08:51;;;;;;;10.73;6.72;;;;;;;;;;5029640;28;20057;-74
2023/02/22 08:11:18;;;;;;;16.85;7.65;;;;;;;;;;5029804;28;20555;-73
2023/02/22 08:13:45;;;;;;;13.82;7.95;;;;;;;;;;5029790;28;20061;-77
2023/02/22 08:16:12;;;;;;;19.45;9.13;;;;;;;;;;5031407;28;20049;-76
2023/02/22 08:18:39;;;;;;;15.63;8.85;;;;;;;;;;5016424;28;20054;-75
2023/02/22 08:21:06;;;;;;;13.38;8.18;;;;;;;;;;5030521;28;20049;-79
2023/02/22 08:23:33;;;;;;;11.68;8.73;;;;;;;;;;5014207;28;20128;-75
2023/02/22 08:26:07;;;;;;;16.90;9.07;;;;;;;;;;5029913;28;20091;-76
2023/02/22 08:28:34;;;;;;;16.73;9.73;;;;;;;;;;5007310;28;20053;-75
2023/02/22 08:31:01;;;;;;;15.77;8.35;;;;;;;;;;5009588;28;20053;-74
2023/02/22 08:33:28;;;;;;;16.38;8.73;;;;;;;;;;5009588;28;20418;-76
2023/02/22 08:35:55;;;;;;;10.27;8.20;;;;;;;;;;5009320;28;20057;-75
2023/02/22 08:38:29;;;;;;;11.55;8.32;;;;;;;;;;4992716;28;20081;-76
2023/02/22 08:40:56;;;;;;;14.90;8.50;;;;;;;;;;5020487;28;20049;-75
2023/02/22 08:43:23;;;;;;;14.13;7.38;;;;;;;;;;5007350;28;20053;-74
2023/02/22 08:45:51;;;;;;;15.43;8.25;;;;;;;;;;5007378;28;20077;-73
2023/02/22 08:48:20;;;;;;;12.95;8.10;;;;;;;;;;5018682;28;20080;-74
2023/02/22 08:50:46;;;;;;;14.25;8.25;;;;;;;;;;5009455;28;20054;-73
2023/02/22 08:53:15;;;;;;;12.25;7.78;;;;;;;;;;5013983;28;20498;-73
2023/02/22 08:55:42;;;;;;;14.10;8.15;;;;;;;;;;5002015;28;20058;-72
2023/02/22 08:58:09;;;;;;;13.32;8.07;;;;;;;;;;4994393;28;20962;-70
2023/02/22 09:00:40;;;;;;;12.50;7.43;;;;;;;;;;5004374;28;20151;-70
2023/02/22 09:03:09;;;;;;;12.75;8.18;;;;;;;;;;5013938;28;20050;-70
2023/02/22 09:05:36;;;;;;;13.73;8.50;;;;;;;;;;5000421;28;20092;-70
2023/02/22 09:08:05;;;;;;;16.45;8.38;;;;;;;;;;5000519;28;20049;-71
2023/02/22 09:10:33;;;;;;;16.75;7.85;;;;;;;;;;5010014;28;20168;-70
2023/02/22 09:13:01;;;;;;;11.13;7.38;;;;;;;;;;5011079;28;20133;-75
2023/02/22 09:15:28;;;;;;;17.15;9.05;;;;;;;;;;4995416;28;20054;-70
2023/02/22 09:17:55;;;;;;;14.30;7.63;;;;;;;;;;5018343;28;20046;-70
2023/02/22 09:20:23;;;;;;;12.73;8.20;;;;;;;;;;4999802;28;20049;-70
2023/02/22 09:22:51;;;;;;;11.57;7.75;;;;;;;;;;5017031;28;20054;-70
2023/02/22 09:25:21;;;;;;;12.68;7.60;;;;;;;;;;5017358;28;20132;-70
2023/02/22 09:27:50;;;;;;;14.18;7.90;;;;;;;;;;5002125;28;20054;-70
2023/02/22 09:30:31;;;;;;;13.38;8.00;;;;;;;;;;4999719;28;20107;-70
2023/02/22 09:33:04;;;;;;;15.10;8.80;;;;;;;;;;4999812;28;20498;-70
2023/02/22 09:35:34;;;;;;;14.13;7.95;;;;;;;;;;4999137;28;20056;-70
2023/02/22 09:38:05;;;;;;;11.18;7.60;;;;;;;;;;4999076;28;20053;-70
2023/02/22 09:40:32;;;;;;;12.23;8.13;;;;;;;;;;5003739;28;20060;-70
2023/02/22 09:43:08;;;;;;;11.23;7.35;;;;;;;;;;5001269;28;20554;-70
2023/02/22 09:45:50;;;;;;;12.68;6.95;;;;;;;;;;5013991;28;20077;-70
2023/02/22 09:48:17;;;;;;;15.10;7.93;;;;;;;;;;5002620;28;20046;-70
2023/02/22 09:50:48;;;;;;;15.45;8.02;;;;;;;;;;5003632;28;20053;-71
2023/02/22 09:53:20;;;;;;;15.48;7.82;;;;;;;;;;4983780;28;20053;-70
2023/02/22 09:55:49;;;;;;;14.45;7.47;;;;;;;;;;5013241;28;20061;-70
2023/02/22 09:58:16;;;;;;;10.73;7.60;;;;;;;;;;4997533;28;20100;-70
2023/02/22 10:00:43;;;;;;;9.30;7.10;;;;;;;;;;5015885;28;20132;-70
2023/02/22 10:03:21;;;;;;;13.02;7.22;;;;;;;;;;4998548;28;20115;-71
2023/02/22 10:05:57;;;;;;;13.10;7.60;;;;;;;;;;5014445;28;20497;-70
2023/02/22 10:08:28;;;;;;;13.48;7.72;;;;;;;;;;5005206;28;20057;-71
2023/02/22 10:11:15;;;;;;;12.20;7.75;;;;;;;;;;5015362;28;20490;-71
2023/02/22 10:13:54;;;;;;;9.02;7.10;;;;;;;;;;5016313;28;20089;-70
2023/02/22 10:16:53;;;;;;;11.50;7.18;;;;;;;;;;5020805;28;20125;-71
2023/02/22 10:19:25;;;;;;;12.27;6.85;;;;;;;;;;4991030;28;20053;-73
2023/02/22 10:22:29;;;;;;;13.77;8.13;;;;;;;;;;4999404;28;20061;-73
2023/02/22 10:25:16;;;;;;;10.70;7.82;;;;;;;;;;5002304;28;20108;-77
2023/02/22 10:27:59;;;;;;;9.55;7.03;;;;;;;;;;4985415;28;20046;-76
2023/02/22 10:30:53;;;;;;;11.27;6.68;;;;;;;;;;5004609;28;20498;-76
2023/02/22 10:33:37;;;;;;;12.05;7.45;;;;;;;;;;4988988;28;20105;-77
2023/02/22 10:36:05;;;;;;;12.85;7.32;;;;;;;;;;5004350;28;20534;-77
2023/02/22 10:38:33;;;;;;;8.85;6.68;;;;;;;;;;4986368;28;20058;-76
2023/02/22 10:41:08;;;;;;;14.73;7.30;;;;;;;;;;5004681;28;20517;-76
2023/02/22 10:43:36;;;;;;;9.25;6.90;;;;;;;;;;5002706;28;20049;-74
2023/02/22 10:46:05;;;;;;;12.23;7.47;;;;;;;;;;5004567;28;20128;-74
2023/02/22 10:48:35;;;;;;;10.80;7.18;;;;;;;;;;4984409;28;20054;-76
2023/02/22 10:51:07;;;;;;;9.82;7.15;;;;;;;;;;4977667;28;20061;-75
2023/02/22 10:53:38;;;;;;;13.25;7.03;;;;;;;;;;4972115;28;20131;-75
2023/02/22 10:56:20;;;;;;;11.85;6.50;;;;;;;;;;4997057;28;20462;-75
2023/02/22 10:59:01;;;;;;;13.17;6.60;;;;;;;;;;4997823;28;20056;-75
2023/02/22 11:01:31;;;;;;;13.02;7.03;;;;;;;;;;4995378;28;20046;-75
2023/02/22 11:04:03;;;;;;;8.85;6.35;;;;;;;;;;4998226;28;20517;-75
2023/02/22 11:06:32;;;;;;;10.33;6.30;;;;;;;;;;4988381;28;20136;-75
2023/02/22 11:09:11;;;;;;;10.60;6.88;;;;;;;;;;4999906;28;20877;-75
2023/02/22 11:11:44;;;;;;;10.50;7.05;;;;;;;;;;4971167;28;20050;-75
2023/02/22 11:14:17;;;;;;;8.98;6.53;;;;;;;;;;4968298;28;20082;-74
2023/02/22 11:16:52;;;;;;;12.23;6.90;;;;;;;;;;4984822;28;20439;-75
2023/02/22 11:19:21;;;;;;;10.07;6.82;;;;;;;;;;4996864;28;20126;-76
2023/02/22 11:21:51;;;;;;;12.27;7.38;;;;;;;;;;4999722;28;20046;-75
2023/02/22 11:24:23;;;;;;;10.23;7.15;;;;;;;;;;4983257;28;20057;-75
2023/02/22 11:27:05;;;;;;;10.70;7.35;;;;;;;;;;4984595;28;20058;-75
2023/02/22 11:29:35;;;;;;;9.25;6.57;;;;;;;;;;4991905;28;20052;-75
2023/02/22 11:32:03;;;;;;;11.77;7.82;;;;;;;;;;5000244;28;20098;-74
2023/02/22 11:34:35;;;;;;;11.45;7.53;;;;;;;;;;4999339;28;20085;-74
2023/02/22 11:37:40;;;;;;;9.43;7.53;;;;;;;;;;4997293;28;20513;-76
2023/02/22 11:40:21;;;;;;;10.43;7.00;;;;;;;;;;5005515;28;20058;-75
2023/02/22 11:42:49;;;;;;;10.45;8.27;;;;;;;;;;4984974;28;20449;-76
2023/02/22 11:45:20;;;;;;;10.90;7.72;;;;;;;;;;4996853;28;20054;-76
2023/02/22 11:47:51;;;;;;;12.23;7.97;;;;;;;;;;4982634;28;20125;-76
2023/02/22 11:50:26;;;;;;;13.27;7.85;;;;;;;;;;4997665;28;20058;-75
2023/02/22 11:53:24;;;;;;;11.60;7.95;;;;;;;;;;4986322;28;20058;-75
2023/02/22 11:55:57;;;;;;;12.10;7.00;;;;;;;;;;5002632;28;20053;-75
2023/02/22 11:58:46;;;;;;;11.43;8.43;;;;;;;;;;5001281;28;20137;-74
2023/02/22 12:01:19;;;;;;;8.90;7.30;;;;;;;;;;5013824;28;20117;-75
2023/02/22 12:04:21;;;;;;;12.63;7.55;;;;;;;;;;4998758;28;20058;-74
2023/02/22 12:07:07;;;;;;;12.10;8.13;;;;;;;;;;4998067;28;20050;-72
2023/02/22 12:09:54;;;;;;;10.75;7.38;;;;;;;;;;4995085;28;20564;-73
2023/02/22 12:12:46;;;;;;;11.90;7.38;;;;;;;;;;4982483;28;20058;-72
2023/02/22 12:15:27;;;;;;;10.50;7.85;;;;;;;;;;5001713;28;20133;-73
2023/02/22 12:18:04;;;;;;;10.48;8.00;;;;;;;;;;4996846;28;20060;-75
2023/02/22 12:20:56;;;;;;;13.15;7.82;;;;;;;;;;4996030;28;20054;-73
2023/02/22 12:23:35;;;;;;;8.05;6.55;;;;;;;;;;4996372;28;20057;-74
2023/02/22 12:26:24;;;;;;;8.63;6.72;;;;;;;;;;4997021;28;20424;-73
2023/02/22 12:29:05;;;;;;;11.65;6.93;;;;;;;;;;4982094;28;20468;-73
2023/02/22 12:31:36;;;;;;;9.15;6.88;;;;;;;;;;4998324;28;20470;-72
2023/02/22 12:34:15;;;;;;;10.43;7.13;;;;;;;;;;4998881;28;20568;-72
2023/02/22 12:36:50;;;;;;;10.63;7.75;;;;;;;;;;4978284;28;20050;-73
2023/02/22 12:39:27;;;;;;;10.02;6.65;;;;;;;;;;5002197;28;20057;-75
2023/02/22 12:41:56;;;;;;;9.05;5.93;;;;;;;;;;5001785;28;20074;-73
2023/02/22 12:44:27;;;;;;;9.25;6.68;;;;;;;;;;4968308;28;20088;-73
2023/02/22 12:46:55;;;;;;;10.45;6.50;;;;;;;;;;4985925;28;20077;-72
2023/02/22 12:49:41;;;;;;;13.18;6.72;;;;;;;;;;4969008;28;20073;-75
2023/02/22 12:52:31;;;;;;;9.35;7.13;;;;;;;;;;4998264;28;20081;-73
2023/02/22 12:55:10;;;;;;;9.73;6.45;;;;;;;;;;4994800;28;20145;-76
2023/02/22 12:58:06;;;;;;;11.43;8.18;;;;;;;;;;5000089;28;20061;-75
2023/02/22 13:00:52;;;;;;;11.77;7.47;;;;;;;;;;4978757;28;20441;-76
2023/02/22 13:03:32;;;;;;;8.95;6.45;;;;;;;;;;4995711;28;20103;-75
2023/02/22 13:06:38;;;;;;;12.63;7.50;;;;;;;;;;4980500;28;20137;-75
2023/02/22 13:09:23;;;;;;;12.00;7.65;;;;;;;;;;4990073;28;20457;-76
2023/02/22 13:12:08;;;;;;;10.85;8.60;;;;;;;;;;4982250;28;20132;-76
2023/02/22 13:14:56;;;;;;;10.05;8.23;;;;;;;;;;5000812;28;20410;-76
2023/02/22 13:17:41;;;;;;;11.88;8.18;;;;;;;;;;4982062;28;20484;-75
2023/02/22 13:20:11;;;;;;;11.80;8.48;;;;;;;;;;4982837;28;20145;-75
2023/02/22 13:23:00;;;;;;;13.40;8.93;;;;;;;;;;5015577;28;20510;-75
2023/02/22 13:26:09;;;;;;;13.48;8.38;;;;;;;;;;4985422;28;20109;-75
2023/02/22 13:28:42;;;;;;;14.27;8.52;;;;;;;;;;4923643;29;20440;-76
2023/02/22 13:31:46;;;;;;;17.45;8.85;;;;;;;;;;4907869;29;20567;-76
2023/02/22 13:34:21;;;;;;;15.32;8.15;;;;;;;;;;4983947;28;20052;-77
2023/02/22 13:36:52;;;;;;;11.18;7.85;;;;;;;;;;4999182;28;20409;-77
2023/02/22 13:39:41;;;;;;;12.13;8.30;;;;;;;;;;4997402;28;20159;-77
2023/02/22 13:42:17;;;;;;;12.30;8.57;;;;;;;;;;4997229;28;20046;-76
2023/02/22 13:45:09;;;;;;;20.98;10.13;;;;;;;;;;4999703;28;20053;-76
2023/02/22 13:48:27;;;;;;;15.63;8.55;;;;;;;;;;5004493;28;20052;-77
2023/02/22 13:51:31;;;;;;;28.75;9.25;;;;;;;;;;4924184;29;20055;-77
2023/02/22 13:54:20;;;;;;;9.98;7.88;;;;;;;;;;5001305;28;20054;-77
2023/02/22 13:56:48;;;;;;;13.95;9.38;;;;;;;;;;4998988;28;20062;-78
2023/02/22 13:59:33;;;;;;;14.50;9.40;;;;;;;;;;5003773;28;20495;-76
2023/02/22 14:02:03;;;;;;;14.32;8.63;;;;;;;;;;4984397;28;20093;-76
2023/02/22 14:04:30;;;;;;;13.00;8.50;;;;;;;;;;4978277;28;20573;-76
2023/02/22 14:07:16;;;;;;;13.23;8.75;;;;;;;;;;5009676;28;20123;-77
2023/02/22 14:09:47;;;;;;;13.57;8.95;;;;;;;;;;5010910;28;20050;-76
2023/02/22 14:12:29;;;;;;;12.57;9.27;;;;;;;;;;5012837;28;20061;-76
2023/02/22 14:15:12;;;;;;;14.45;10.02;;;;;;;;;;5012280;28;20400;-76
2023/02/22 14:17:59;;;;;;;13.80;9.45;;;;;;;;;;5011963;28;20049;-76
2023/02/22 14:20:29;;;;;;;15.68;9.35;;;;;;;;;;4995186;28;20053;-76
2023/02/22 14:23:17;;;;;;;11.82;8.30;;;;;;;;;;4979369;28;20196;-76
2023/02/22 14:25:44;;;;;;;14.55;8.05;;;;;;;;;;5012671;28;20145;-75
2023/02/22 14:28:38;;;;;;;19.05;9.65;;;;;;;;;;5013192;28;20140;-76
2023/02/22 14:31:11;;;;;;;13.07;7.35;;;;;;;;;;5011870;28;20054;-77
2023/02/22 14:33:56;;;;;;;17.77;8.48;;;;;;;;;;5011700;28;20054;-76
2023/02/22 14:36:27;;;;;;;13.90;9.52;;;;;;;;;;4996234;28;20060;-76
2023/02/22 14:38:57;;;;;;;13.13;9.02;;;;;;;;;;5011625;28;20140;-75
2023/02/22 14:41:25;;;;;;;17.17;9.23;;;;;;;;;;5011709;28;20144;-75
2023/02/22 14:43:55;;;;;;;12.55;8.50;;;;;;;;;;4995385;28;20154;-75
2023/02/22 14:46:23;;;;;;;12.18;9.05;;;;;;;;;;4995655;28;20498;-76
2023/02/22 14:48:52;;;;;;;16.70;9.50;;;;;;;;;;4995852;28;20054;-75
2023/02/22 14:51:27;;;;;;;15.70;9.60;;;;;;;;;;5011532;28;20161;-75
2023/02/22 14:54:35;;;;;;;13.15;9.05;;;;;;;;;;4996375;28;20050;-75
2023/02/22 14:57:26;;;;;;;13.93;8.68;;;;;;;;;;5012620;28;20073;-74
2023/02/22 15:00:29;;;;;;;11.98;9.05;;;;;;;;;;5013400;28;20406;-75
2023/02/22 15:02:58;;;;;;;16.73;9.95;;;;;;;;;;4997027;28;20066;-74
2023/02/22 15:05:29;;;;;;;14.02;9.80;;;;;;;;;;5011287;28;20084;-75